Time;durP1;ratioP1;P1;durP2;ratioP2;P2;SDS_P1;SDS_P2;PMS_P1;PMS_P2;Temp;Humidity;BMP_temperature;BMP_pressure;BME280_temperature;BME280_humidity;BME280_pressure;Samples;Min_cycle;Max_cycle;Signal;HPM_P1;HPM_P2
2022/11/22 00:01:19;;;;;;;2.53;2.43;;;;;;;9.51;74.51;98897.78;5094721;28;20215;-66
2022/11/22 00:03:46;;;;;;;2.00;1.90;;;;;;;9.53;74.40;98896.56;5094314;28;20191;-66
2022/11/22 00:06:13;;;;;;;2.13;2.03;;;;;;;9.40;75.17;98895.75;5091319;28;20192;-66
2022/11/22 00:08:41;;;;;;;2.20;2.10;;;;;;;9.46;74.84;98893.09;5074303;28;20192;-66
2022/11/22 00:11:07;;;;;;;2.50;2.40;;;;;;;9.41;74.99;98886.78;5074042;28;20196;-66
2022/11/22 00:13:34;;;;;;;2.67;2.57;;;;;;;9.18;76.33;98892.47;5073961;28;20196;-66
2022/11/22 00:16:02;;;;;;;2.87;2.60;;;;;;;9.11;76.48;98896.91;5074304;28;20196;-66
2022/11/22 00:18:30;;;;;;;2.77;2.60;;;;;;;9.09;76.73;98892.84;5074239;28;20228;-66
2022/11/22 00:20:57;;;;;;;2.90;2.77;;;;;;;9.08;77.26;98901.81;5074090;28;20351;-66
2022/11/22 00:23:24;;;;;;;2.90;2.70;;;;;;;9.05;77.54;98899.56;5056422;28;20570;-66
2022/11/22 00:25:52;;;;;;;2.80;2.60;;;;;;;9.08;77.25;98893.88;5110443;28;20255;-66
2022/11/22 00:28:18;;;;;;;2.80;2.70;;;;;;;8.97;76.86;98879.38;5105592;28;20691;-66
2022/11/22 00:30:45;;;;;;;3.23;2.93;;;;;;;9.18;76.52;98899.56;5094159;28;20638;-66
2022/11/22 00:33:12;;;;;;;2.80;2.70;;;;;;;9.12;75.84;98908.34;5093773;28;20654;-66
2022/11/22 00:35:38;;;;;;;2.83;2.73;;;;;;;9.06;75.53;98909.13;5094111;28;20191;-66
2022/11/22 00:38:05;;;;;;;2.67;2.57;;;;;;;8.99;76.11;98906.47;5093946;28;20191;-66
2022/11/22 00:40:32;;;;;;;2.60;2.43;;;;;;;8.81;76.26;98900.09;5093581;28;20219;-66
2022/11/22 00:43:00;;;;;;;2.47;2.37;;;;;;;8.77;75.69;98904.16;5093456;28;20304;-66
2022/11/22 00:45:26;;;;;;;2.90;2.80;;;;;;;8.79;75.92;98910.09;5095100;28;20236;-66
2022/11/22 00:47:53;;;;;;;2.90;2.80;;;;;;;8.71;76.63;98913.75;5093751;28;20199;-67
2022/11/22 00:50:19;;;;;;;2.43;2.33;;;;;;;8.70;76.26;98920.03;5094056;28;20248;-66
2022/11/22 00:52:46;;;;;;;2.97;2.87;;;;;;;8.66;75.83;98923.28;5093741;28;20229;-66
2022/11/22 00:55:13;;;;;;;2.80;2.70;;;;;;;8.64;75.91;98923.47;5093720;28;20196;-66
2022/11/22 00:57:39;;;;;;;4.00;3.00;;;;;;;8.76;76.18;98916.59;5093396;28;20724;-66
2022/11/22 01:00:09;;;;;;;3.23;3.07;;;;;;;8.75;76.05;98922.09;5093509;28;20245;-66
2022/11/22 01:02:36;;;;;;;3.07;2.97;;;;;;;8.80;76.04;98925.78;5093346;28;20191;-66
2022/11/22 01:05:03;;;;;;;3.03;2.93;;;;;;;8.78;76.18;98919.84;5093195;28;20671;-66
2022/11/22 01:07:29;;;;;;;3.10;3.00;;;;;;;8.75;76.29;98922.09;5079053;28;20191;-66
2022/11/22 01:09:56;;;;;;;3.07;2.97;;;;;;;8.72;76.78;98925.13;5073095;28;20250;-66
2022/11/22 01:12:23;;;;;;;3.30;3.20;;;;;;;8.71;76.50;98926.97;5073084;28;20616;-65
2022/11/22 01:14:50;;;;;;;3.73;3.53;;;;;;;8.67;76.64;98924.91;5072999;28;20246;-66
2022/11/22 01:17:18;;;;;;;3.80;3.60;;;;;;;8.63;76.33;98926.31;5072801;28;20227;-66
2022/11/22 01:19:46;;;;;;;3.40;3.20;;;;;;;8.50;77.28;98923.63;5072825;28;20191;-66
2022/11/22 01:22:12;;;;;;;3.47;3.27;;;;;;;8.39;77.95;98924.16;5072555;28;20219;-66
2022/11/22 01:24:39;;;;;;;3.40;3.27;;;;;;;8.53;76.65;98939.91;5088807;28;20631;-66
2022/11/22 01:27:06;;;;;;;3.70;3.50;;;;;;;8.53;76.42;98939.13;5113806;28;20283;-66
2022/11/22 01:29:32;;;;;;;3.60;3.30;;;;;;;8.43;77.12;98949.22;5094232;28;20200;-66
2022/11/22 01:31:59;;;;;;;3.60;3.40;;;;;;;8.51;76.43;98939.31;5093028;28;20693;-67
2022/11/22 01:34:27;;;;;;;3.60;3.40;;;;;;;8.47;76.40;98931.94;5093151;28;20245;-66
2022/11/22 01:36:54;;;;;;;3.80;3.50;;;;;;;8.49;76.42;98932.56;5092650;28;20195;-66
2022/11/22 01:39:20;;;;;;;3.60;3.40;;;;;;;8.41;76.61;98927.44;5092470;28;20207;-66
2022/11/22 01:41:47;;;;;;;4.07;3.77;;;;;;;8.47;77.36;98934.59;5092456;28;20731;-66
2022/11/22 01:44:18;;;;;;;3.80;3.50;;;;;;;8.27;76.86;98904.56;5093376;28;20187;-66
2022/11/22 01:46:45;;;;;;;3.70;3.50;;;;;;;8.36;76.54;98917.44;5092475;28;20663;-66
2022/11/22 01:49:19;;;;;;;3.33;3.20;;;;;;;8.37;77.15;98923.56;5092677;28;20191;-66
2022/11/22 01:51:51;;;;;;;2.90;2.80;;;;;;;8.33;77.03;98932.91;5092347;28;20641;-67
2022/11/22 01:54:21;;;;;;;3.50;3.30;;;;;;;8.21;78.04;98940.53;5092628;28;20183;-67
2022/11/22 01:56:52;;;;;;;3.30;3.20;;;;;;;8.22;77.66;98930.78;5093527;28;20233;-66
2022/11/22 01:59:23;;;;;;;3.13;3.00;;;;;;;8.15;77.67;98924.59;5092223;28;20716;-67
2022/11/22 02:01:50;;;;;;;3.20;3.10;;;;;;;7.98;77.91;98920.63;5075647;28;20215;-66
2022/11/22 02:04:19;;;;;;;2.80;2.70;;;;;;;8.02;78.05;98925.34;5093172;28;20244;-66
2022/11/22 02:06:56;;;;;;;3.40;3.20;;;;;;;8.09;78.44;98930.69;5084201;28;20671;-66
2022/11/22 02:09:23;;;;;;;4.60;3.33;;;;;;;8.13;78.46;98931.94;5073405;28;20222;-66
2022/11/22 02:11:53;;;;;;;3.83;3.63;;;;;;;7.73;79.04;98899.13;5071910;28;20203;-66
2022/11/22 02:14:25;;;;;;;3.60;3.40;;;;;;;7.93;78.92;98930.97;5072339;28;20261;-66
2022/11/22 02:16:51;;;;;;;3.30;3.10;;;;;;;7.79;79.40;98931.88;5072647;28;20598;-66
2022/11/22 02:19:23;;;;;;;3.80;3.53;;;;;;;7.82;79.18;98924.41;5072352;28;20253;-66
2022/11/22 02:21:57;;;;;;;3.67;3.47;;;;;;;7.84;79.46;98932.13;5071844;28;20207;-66
2022/11/22 02:24:28;;;;;;;3.60;3.40;;;;;;;7.77;79.69;98931.25;5077252;28;20257;-66
2022/11/22 02:26:56;;;;;;;3.00;2.90;;;;;;;7.87;79.67;98935.19;5112716;28;20543;-66
2022/11/22 02:29:24;;;;;;;3.67;3.47;;;;;;;7.87;78.68;98931.72;5094689;28;20187;-66
2022/11/22 02:31:51;;;;;;;3.80;3.60;;;;;;;7.92;78.02;98945.22;5092306;28;20257;-66
2022/11/22 02:34:18;;;;;;;3.70;3.50;;;;;;;7.87;78.19;98952.88;5092303;28;20626;-66
2022/11/22 02:36:48;;;;;;;3.80;3.60;;;;;;;7.81;78.11;98943.09;5091899;28;20667;-66
2022/11/22 02:39:19;;;;;;;3.20;3.10;;;;;;;7.68;78.42;98943.78;5092539;28;20188;-66
2022/11/22 02:41:47;;;;;;;3.63;3.43;;;;;;;7.71;78.91;98938.13;5093007;28;20263;-66
2022/11/22 02:44:17;;;;;;;3.23;3.10;;;;;;;7.76;78.89;98946.28;5093069;28;20190;-66
2022/11/22 02:46:48;;;;;;;3.70;3.50;;;;;;;7.75;78.50;98952.59;5091798;28;20736;-66
2022/11/22 02:49:17;;;;;;;3.83;3.63;;;;;;;7.79;78.97;98948.56;5091669;28;20187;-66
2022/11/22 02:51:44;;;;;;;3.13;3.03;;;;;;;7.84;79.05;98948.00;5092643;28;20278;-66
2022/11/22 02:54:10;;;;;;;3.60;3.40;;;;;;;7.85;79.07;98945.16;5091909;28;20191;-67
2022/11/22 02:56:37;;;;;;;3.70;3.50;;;;;;;7.86;78.72;98951.25;5092619;28;20195;-67
2022/11/22 02:59:04;;;;;;;3.60;3.43;;;;;;;7.81;79.20;98953.66;5091626;28;20252;-67
2022/11/22 03:01:32;;;;;;;3.73;3.53;;;;;;;7.69;80.06;98952.53;5092162;28;20219;-67
2022/11/22 03:03:59;;;;;;;4.07;3.80;;;;;;;7.67;79.85;98957.22;5092148;28;20252;-67
2022/11/22 03:06:25;;;;;;;3.70;3.53;;;;;;;7.69;81.16;98961.31;5086689;28;20250;-66
2022/11/22 03:08:52;;;;;;;3.67;3.40;;;;;;;7.74;80.75;98958.06;5071386;28;20214;-66
2022/11/22 03:11:19;;;;;;;4.00;3.70;;;;;;;7.78;80.92;98957.50;5071553;28;20196;-66
2022/11/22 03:13:45;;;;;;;4.07;3.87;;;;;;;7.75;80.33;98955.25;5071319;28;20195;-66
2022/11/22 03:16:12;;;;;;;4.60;4.20;;;;;;;7.57;80.61;98954.06;5074592;28;20253;-66
2022/11/22 03:18:40;;;;;;;4.10;3.70;;;;;;;7.33;82.72;98952.63;5075617;28;20573;-66
2022/11/22 03:21:10;;;;;;;4.30;3.90;;;;;;;7.18;83.17;98956.34;5074764;28;20231;-66
2022/11/22 03:23:37;;;;;;;4.47;4.10;;;;;;;7.16;82.86;98945.13;5075225;28;20222;-66
2022/11/22 03:26:07;;;;;;;4.70;4.23;;;;;;;7.23;82.87;98943.38;5107990;28;20294;-66
2022/11/22 03:28:34;;;;;;;4.37;4.00;;;;;;;7.22;82.68;98949.69;5105185;28;20195;-67
2022/11/22 03:31:01;;;;;;;4.93;4.33;;;;;;;7.25;82.72;98946.63;5094896;28;20195;-67
2022/11/22 03:33:27;;;;;;;6.70;4.53;;;;;;;7.18;83.61;98948.41;5095066;28;20320;-67
2022/11/22 03:35:57;;;;;;;4.77;4.37;;;;;;;7.03;83.76;98948.47;5094916;28;20723;-66
2022/11/22 03:38:23;;;;;;;4.57;4.27;;;;;;;6.94;84.03;98949.56;5095551;28;20250;-66
2022/11/22 03:40:50;;;;;;;4.60;4.30;;;;;;;7.02;83.31;98956.56;5094770;28;20195;-66
2022/11/22 03:43:17;;;;;;;4.73;4.43;;;;;;;7.10;83.56;98954.63;5094866;28;20195;-66
2022/11/22 03:45:45;;;;;;;4.40;4.17;;;;;;;7.23;82.24;98969.78;5094713;28;20194;-66
2022/11/22 03:48:12;;;;;;;5.10;4.67;;;;;;;7.29;82.31;98969.84;5094777;28;20196;-66
2022/11/22 03:50:38;;;;;;;4.80;4.40;;;;;;;7.40;82.73;98971.19;5094619;28;20203;-66
2022/11/22 03:53:07;;;;;;;4.63;4.37;;;;;;;7.47;82.43;98961.50;5094664;28;20195;-66
2022/11/22 03:55:33;;;;;;;4.93;4.63;;;;;;;7.63;81.58;98969.19;5094504;28;20683;-66
2022/11/22 03:58:00;;;;;;;4.13;3.93;;;;;;;7.72;81.75;98973.31;5094858;28;20290;-66
2022/11/22 04:00:27;;;;;;;4.70;4.40;;;;;;;7.73;81.16;98972.31;5094379;28;20244;-66
2022/11/22 04:02:54;;;;;;;4.87;4.40;;;;;;;7.49;81.42;98967.41;5094379;28;20650;-66
2022/11/22 04:05:21;;;;;;;5.03;4.80;;;;;;;7.31;81.44;98974.97;5095447;28;20191;-67
2022/11/22 04:07:47;;;;;;;4.67;3.93;;;;;;;7.21;82.50;98971.78;5078166;28;20253;-67
2022/11/22 04:10:15;;;;;;;4.43;4.13;;;;;;;7.18;82.00;98958.97;5074010;28;20196;-66
2022/11/22 04:12:42;;;;;;;3.97;3.60;;;;;;;7.10;83.02;98980.22;5074119;28;20253;-66
2022/11/22 04:15:09;;;;;;;3.53;3.37;;;;;;;7.00;83.54;98969.13;5073948;28;20199;-66
2022/11/22 04:17:43;;;;;;;3.40;3.30;;;;;;;7.01;84.19;98986.59;5074207;28;20281;-66
2022/11/22 04:22:57;;;;;;;4.87;3.77;;;;;;;6.83;85.71;98968.53;5074274;28;20206;-65
2022/11/22 04:25:26;;;;;;;4.50;4.30;;;;;;;6.85;85.75;98970.97;5096049;28;20190;-66
2022/11/22 04:27:52;;;;;;;7.33;5.00;;;;;;;6.89;85.32;98980.97;5109638;28;20292;-66
2022/11/22 04:30:19;;;;;;;4.70;4.50;;;;;;;6.84;86.07;98977.25;5094004;28;20191;-66
2022/11/22 04:32:45;;;;;;;4.63;4.33;;;;;;;6.84;85.83;98982.53;5093905;28;20191;-66
2022/11/22 04:35:13;;;;;;;4.53;4.23;;;;;;;6.84;85.54;98977.25;5093732;28;20221;-67
2022/11/22 04:37:40;;;;;;;4.37;4.13;;;;;;;6.88;85.65;98981.16;5093853;28;20199;-66
2022/11/22 04:40:08;;;;;;;4.90;4.60;;;;;;;6.83;85.37;98986.19;5094260;28;20199;-65
2022/11/22 04:45:19;;;;;;;4.83;4.53;;;;;;;6.86;85.37;98994.53;5094320;28;20179;-65
2022/11/22 04:47:58;;;;;;;5.97;4.13;;;;;;;6.77;86.47;99000.94;5093905;28;20194;-65
2022/11/22 04:53:11;;;;;;;4.97;4.67;;;;;;;6.74;86.51;98996.00;5094194;28;20235;-66
2022/11/22 04:55:38;;;;;;;4.27;4.07;;;;;;;6.79;86.31;99008.66;5093267;28;21116;-65
2022/11/22 04:58:06;;;;;;;4.70;4.50;;;;;;;6.80;85.81;99002.38;5085758;28;20192;-67
2022/11/22 05:00:33;;;;;;;5.20;4.90;;;;;;;6.83;86.29;99012.56;5073185;28;20196;-66
2022/11/22 05:03:00;;;;;;;4.70;4.40;;;;;;;6.75;86.74;99024.06;5072593;28;20286;-65
2022/11/22 05:05:27;;;;;;;4.80;4.57;;;;;;;6.68;86.91;99024.94;5073104;28;20638;-67
2022/11/22 05:07:54;;;;;;;6.93;6.40;;;;;;;6.54;87.14;99025.78;5090436;28;20264;-65
2022/11/22 05:10:21;;;;;;;12.70;5.70;;;;;;;6.60;87.08;99035.59;5092056;28;20720;-66
2022/11/22 05:12:47;;;;;;;6.07;5.53;;;;;;;6.58;87.41;99038.44;5093497;28;20193;-65
2022/11/22 05:15:15;;;;;;;7.73;5.20;;;;;;;6.64;86.96;99052.72;5093953;28;20591;-66
2022/11/22 05:17:42;;;;;;;6.50;5.50;;;;;;;6.65;86.41;99051.72;5093146;28;20233;-65
2022/11/22 05:20:10;;;;;;;12.10;6.73;;;;;;;6.77;86.01;99055.56;5085279;28;20200;-65
2022/11/22 05:25:21;;;;;;;5.10;4.80;;;;;;;6.89;85.77;99073.38;5080272;28;20210;-64
2022/11/22 05:27:48;;;;;;;8.40;5.30;;;;;;;6.93;85.50;99073.81;5084784;28;20627;-65
2022/11/22 05:30:16;;;;;;;6.10;5.60;;;;;;;6.88;85.66;99073.56;5082675;28;20195;-65
2022/11/22 05:32:42;;;;;;;6.33;5.83;;;;;;;6.78;85.88;99075.66;5092739;28;20248;-67
2022/11/22 05:35:09;;;;;;;6.60;6.00;;;;;;;6.91;85.91;99087.22;5092771;28;20187;-66
2022/11/22 05:37:36;;;;;;;7.50;6.07;;;;;;;6.94;84.88;99083.41;5091651;28;20195;-66
2022/11/22 05:40:03;;;;;;;8.27;7.50;;;;;;;7.08;84.07;99087.84;5092437;28;20249;-67
2022/11/22 05:42:29;;;;;;;6.63;6.07;;;;;;;7.14;83.74;99092.41;5092256;28;20276;-66
2022/11/22 05:44:56;;;;;;;7.27;6.67;;;;;;;7.24;84.13;99098.19;5093020;28;20191;-67
2022/11/22 05:47:24;;;;;;;5.77;5.27;;;;;;;7.29;83.48;99114.31;5092648;28;20224;-67
2022/11/22 05:49:51;;;;;;;21.87;6.40;;;;;;;7.43;83.59;99108.19;5092513;28;20244;-67
2022/11/22 05:52:17;;;;;;;5.13;4.73;;;;;;;7.54;83.10;99110.34;5092339;28;20264;-67
2022/11/22 05:54:44;;;;;;;32.33;5.87;;;;;;;7.55;82.54;99109.38;5092872;28;20196;-66
2022/11/22 05:57:11;;;;;;;5.77;4.73;;;;;;;7.70;82.36;99115.41;5092069;28;20593;-66
2022/11/22 05:59:37;;;;;;;12.20;5.00;;;;;;;7.91;81.27;99105.66;5092725;28;20563;-67
2022/11/22 06:02:04;;;;;;;6.07;5.43;;;;;;;8.18;80.48;99109.38;5092214;28;20268;-66
2022/11/22 06:04:33;;;;;;;12.97;4.70;;;;;;;8.39;78.54;99109.41;5092406;28;20224;-67
2022/11/22 06:06:59;;;;;;;4.40;4.10;;;;;;;8.61;78.43;99110.97;5082191;28;20199;-67
2022/11/22 06:09:26;;;;;;;22.33;4.87;;;;;;;8.95;76.85;99113.66;5072280;28;20245;-66
2022/11/22 06:11:53;;;;;;;20.70;10.80;;;;;;;9.20;75.45;99128.88;5071670;28;20195;-66
2022/11/22 06:14:19;;;;;;;22.03;9.93;;;;;;;9.52;82.31;99107.00;5072842;28;20254;-70
2022/11/22 06:16:46;;;;;;;8.80;6.73;;;;;;;10.30;80.44;99122.31;5071918;28;20196;-68
2022/11/22 06:19:13;;;;;;;15.00;7.23;;;;;;;10.48;72.23;99136.63;5071859;28;20180;-68
2022/11/22 06:21:41;;;;;;;57.97;7.17;;;;;;;10.64;70.41;99140.72;5071463;28;20195;-68
2022/11/22 06:24:08;;;;;;;4.53;4.13;;;;;;;10.72;69.26;99138.69;5072530;28;20199;-68
2022/11/22 06:26:36;;;;;;;10.00;4.60;;;;;;;10.82;68.07;99132.91;5092117;28;20241;-67
2022/11/22 06:29:03;;;;;;;6.13;5.50;;;;;;;10.81;67.85;99110.03;5091936;28;20249;-72
2022/11/22 06:31:30;;;;;;;13.60;12.40;;;;;;;11.00;67.43;99125.94;5091392;28;20195;-72
2022/11/22 06:33:59;;;;;;;12.37;9.27;;;;;;;10.87;67.21;99103.91;5073929;28;20260;-69
2022/11/22 06:36:27;;;;;;;10.00;6.37;;;;;;;11.03;67.18;99124.72;5091896;28;20631;-70
2022/11/22 06:38:55;;;;;;;5.53;4.80;;;;;;;11.25;66.76;99134.06;5086089;28;20207;-74
2022/11/22 06:41:24;;;;;;;7.10;4.30;;;;;;;11.46;66.00;99152.41;5073129;28;20200;-70
2022/11/22 06:43:52;;;;;;;4.43;4.13;;;;;;;11.38;65.68;99163.28;5070365;28;20276;-71
2022/11/22 06:46:21;;;;;;;6.07;4.37;;;;;;;11.51;66.00;99171.22;5097654;28;20248;-72
2022/11/22 06:48:48;;;;;;;5.50;4.30;;;;;;;11.70;65.08;99181.00;5099325;28;20243;-71
2022/11/22 06:51:17;;;;;;;5.57;4.40;;;;;;;11.77;64.39;99176.47;5114896;28;20214;-67
2022/11/22 06:53:44;;;;;;;4.50;4.10;;;;;;;11.82;63.09;99163.34;5102772;28;20233;-69
2022/11/22 06:56:14;;;;;;;7.57;4.50;;;;;;;11.98;63.13;99154.06;5095190;28;20200;-73
2022/11/22 06:58:41;;;;;;;7.50;5.63;;;;;;;12.20;62.46;99161.50;5095685;28;20640;-71
2022/11/22 07:01:10;;;;;;;10.00;7.23;;;;;;;12.42;62.13;99173.44;5098807;28;20195;-68
2022/11/22 07:03:37;;;;;;;20.97;7.47;;;;;;;12.73;60.41;99189.41;5115890;28;20216;-68
2022/11/22 07:06:04;;;;;;;4.70;4.40;;;;;;;12.92;60.23;99190.28;5113842;28;20188;-69
2022/11/22 07:08:32;;;;;;;4.20;3.80;;;;;;;13.05;59.77;99199.03;5095202;28;20344;-71
2022/11/22 07:11:02;;;;;;;7.00;4.00;;;;;;;13.28;59.90;99193.06;5095341;28;20193;-69
2022/11/22 07:13:31;;;;;;;8.47;5.23;;;;;;;13.53;57.54;99185.81;5086816;28;20283;-72
2022/11/22 07:15:59;;;;;;;7.50;3.93;;;;;;;13.47;57.58;99192.84;5090164;28;20191;-70
2022/11/22 07:18:26;;;;;;;8.47;4.17;;;;;;;13.73;57.43;99197.88;5095150;28;20257;-72
2022/11/22 07:20:53;;;;;;;3.93;3.63;;;;;;;13.74;56.12;99188.84;5094580;28;20191;-74
2022/11/22 07:23:20;;;;;;;4.93;3.70;;;;;;;13.75;57.01;99193.16;5093832;28;20229;-73
2022/11/22 07:25:47;;;;;;;3.57;3.27;;;;;;;13.99;56.41;99200.25;5095321;28;20196;-73
2022/11/22 07:28:15;;;;;;;11.47;4.83;;;;;;;14.43;56.13;99194.53;5095016;28;20191;-74
2022/11/22 07:30:45;;;;;;;11.07;4.57;;;;;;;14.70;54.31;99189.63;5094963;28;20195;-75
2022/11/22 07:33:11;;;;;;;2.90;2.63;;;;;;;15.34;76.30;99139.53;5095340;28;20208;-70
2022/11/22 07:35:38;;;;;;;14.17;4.57;;;;;;;16.07;51.85;99193.25;5095706;28;20515;-69
2022/11/22 07:38:05;;;;;;;5.63;4.03;;;;;;;16.11;53.81;99190.91;5094908;28;20191;-68
2022/11/22 07:40:32;;;;;;;5.67;3.50;;;;;;;16.02;50.41;99184.28;5094795;28;20744;-69
2022/11/22 07:42:59;;;;;;;7.93;3.80;;;;;;;15.93;50.05;99176.63;5094522;28;20764;-68
2022/11/22 07:45:25;;;;;;;3.40;3.20;;;;;;;16.48;56.03;99160.00;5094973;28;20192;-66
2022/11/22 07:47:54;;;;;;;4.73;3.23;;;;;;;17.03;49.81;99171.66;5094491;28;20623;-67
2022/11/22 07:50:20;;;;;;;3.53;3.23;;;;;;;17.28;59.19;99153.22;5094570;28;20198;-66
2022/11/22 07:52:55;;;;;;;4.37;3.63;;;;;;;18.13;45.48;99173.16;5094601;28;20571;-67
2022/11/22 07:55:21;;;;;;;4.03;3.50;;;;;;;18.14;43.80;99167.53;5094482;28;20195;-68
2022/11/22 07:57:48;;;;;;;5.70;4.43;;;;;;;17.98;44.74;99155.00;5094402;28;20198;-66
2022/11/22 08:00:15;;;;;;;9.43;5.17;;;;;;;18.33;47.57;99146.50;5093915;28;20199;-67
2022/11/22 08:02:43;;;;;;;12.13;3.50;;;;;;;18.94;51.38;99137.88;5095000;28;20219;-67
2022/11/22 08:05:11;;;;;;;6.00;4.17;;;;;;;19.52;41.88;99148.53;5094158;28;20287;-67
2022/11/22 08:07:38;;;;;;;35.97;4.60;;;;;;;19.67;47.15;99137.81;5094545;28;20195;-66
2022/11/22 08:10:06;;;;;;;5.80;3.43;;;;;;;20.48;43.50;99151.31;5093842;28;20195;-66
2022/11/22 08:12:33;;;;;;;6.97;3.80;;;;;;;20.76;42.94;99147.25;5094082;28;20205;-66
2022/11/22 08:14:59;;;;;;;14.97;3.77;;;;;;;21.11;42.21;99152.66;5094087;28;20242;-67
2022/11/22 08:17:26;;;;;;;10.30;3.40;;;;;;;21.55;41.10;99159.06;5083151;28;20235;-66
2022/11/22 08:19:53;;;;;;;12.47;3.30;;;;;;;21.84;39.04;99164.69;5075864;28;20188;-66
2022/11/22 08:22:21;;;;;;;6.33;3.00;;;;;;;22.03;39.01;99152.97;5088398;28;20200;-66
2022/11/22 08:24:48;;;;;;;12.60;3.53;;;;;;;22.29;36.83;99156.34;5086382;28;20187;-67
2022/11/22 08:27:15;;;;;;;45.90;5.03;;;;;;;22.62;34.78;99164.53;5081679;28;20577;-65
2022/11/22 08:29:42;;;;;;;2.87;2.50;;;;;;;22.90;34.04;99155.63;5085041;28;20206;-65
2022/11/22 08:32:08;;;;;;;2.60;2.40;;;;;;;23.03;33.28;99146.84;5094444;28;20198;-66
2022/11/22 08:34:35;;;;;;;4.33;2.70;;;;;;;23.28;34.35;99143.91;5094007;28;20196;-65
2022/11/22 08:37:02;;;;;;;12.03;3.70;;;;;;;23.47;33.55;99139.41;5093693;28;20191;-65
2022/11/22 08:39:30;;;;;;;11.13;2.70;;;;;;;23.30;29.56;99128.19;5093857;28;20655;-64
2022/11/22 08:41:57;;;;;;;1.83;1.73;;;;;;;22.61;30.39;99116.06;5078273;28;20198;-65
2022/11/22 08:44:24;;;;;;;1.90;1.80;;;;;;;22.51;30.57;99113.44;5073727;28;20224;-65
2022/11/22 08:46:51;;;;;;;2.93;1.40;;;;;;;22.26;30.08;99114.38;5073248;28;20196;-64
2022/11/22 08:49:18;;;;;;;5.47;1.90;;;;;;;22.34;31.48;99107.59;5073391;28;20562;-68
2022/11/22 08:51:45;;;;;;;3.13;1.57;;;;;;;22.00;30.66;99102.09;5074062;28;20192;-67
2022/11/22 08:54:12;;;;;;;2.40;2.20;;;;;;;21.99;31.69;99097.78;5073365;28;20188;-67
2022/11/22 08:56:41;;;;;;;5.23;2.77;;;;;;;22.04;33.90;99083.41;5074165;28;20192;-68
2022/11/22 08:59:08;;;;;;;6.03;2.20;;;;;;;21.85;33.12;99071.66;5073150;28;20199;-66
2022/11/22 09:01:34;;;;;;;3.17;2.93;;;;;;;21.51;31.19;99076.13;5073294;28;20633;-65
2022/11/22 09:04:01;;;;;;;2.40;2.23;;;;;;;21.53;32.13;99066.63;5072595;28;20315;-65
2022/11/22 09:06:28;;;;;;;5.37;2.40;;;;;;;21.73;32.72;99066.56;5078601;28;20199;-65
2022/11/22 09:08:55;;;;;;;3.00;2.80;;;;;;;21.85;33.24;99064.31;5094231;28;20199;-66
2022/11/22 09:11:21;;;;;;;2.63;2.23;;;;;;;21.88;31.87;99062.97;5092484;28;20191;-65
2022/11/22 09:13:50;;;;;;;3.73;2.30;;;;;;;21.70;31.03;99056.31;5076656;28;20210;-65
2022/11/22 09:16:19;;;;;;;3.13;2.37;;;;;;;21.63;33.27;99065.75;5072831;28;20566;-66
2022/11/22 09:18:46;;;;;;;3.93;2.20;;;;;;;21.92;32.70;99067.53;5072625;28;20227;-66
2022/11/22 09:21:16;;;;;;;2.73;2.10;;;;;;;22.26;33.73;99044.03;5080967;28;20194;-66
2022/11/22 09:23:44;;;;;;;3.07;2.77;;;;;;;22.10;31.26;99049.84;5093140;28;20215;-66
2022/11/22 09:26:13;;;;;;;7.33;3.13;;;;;;;22.05;32.03;99050.69;5090593;28;20198;-65
2022/11/22 09:28:39;;;;;;;5.23;3.90;;;;;;;21.78;31.45;99053.03;5092067;28;20187;-64
2022/11/22 09:31:09;;;;;;;4.40;3.87;;;;;;;21.85;33.26;99039.97;5093292;28;20207;-65
2022/11/22 09:33:38;;;;;;;4.93;3.37;;;;;;;22.07;32.48;99035.00;5092902;28;20249;-67
2022/11/22 09:36:06;;;;;;;12.90;4.50;;;;;;;22.19;30.55;99027.31;5092721;28;20283;-69
2022/11/22 09:38:35;;;;;;;5.80;5.30;;;;;;;21.71;31.16;99025.47;5092324;28;20207;-71
2022/11/22 09:41:10;;;;;;;4.70;4.23;;;;;;;21.33;31.69;99036.16;5089232;28;20191;-72
2022/11/22 09:43:48;;;;;;;7.97;4.00;;;;;;;20.96;32.18;99050.06;5075272;28;20199;-69
2022/11/22 09:46:24;;;;;;;11.60;5.37;;;;;;;20.62;33.09;99037.41;5092249;28;20673;-69
2022/11/22 09:49:15;;;;;;;6.53;3.90;;;;;;;20.37;33.42;99047.13;5092612;28;20190;-68
2022/11/22 09:51:48;;;;;;;6.77;3.90;;;;;;;20.26;33.65;99052.81;5092242;28;20191;-68
2022/11/22 09:54:20;;;;;;;12.87;3.30;;;;;;;20.17;33.86;99065.19;5093047;28;20584;-67
2022/11/22 09:56:51;;;;;;;6.07;3.00;;;;;;;20.31;37.67;99056.28;5092467;28;20183;-64
2022/11/22 09:59:24;;;;;;;4.57;2.90;;;;;;;20.63;37.47;99050.63;5090943;28;20199;-63
2022/11/22 10:01:59;;;;;;;3.00;2.73;;;;;;;20.74;38.82;99041.44;5092054;28;20647;-66
2022/11/22 10:04:32;;;;;;;2.57;2.47;;;;;;;20.84;36.39;99046.00;5092641;28;20238;-65
2022/11/22 10:07:03;;;;;;;3.80;2.50;;;;;;;20.69;35.85;99037.94;5092105;28;20671;-65
2022/11/22 10:09:37;;;;;;;2.70;2.50;;;;;;;20.67;33.34;99032.81;5092344;28;20186;-67
2022/11/22 10:12:11;;;;;;;4.47;2.90;;;;;;;20.05;34.31;99021.47;5091879;28;20183;-67
2022/11/22 10:14:47;;;;;;;3.40;3.20;;;;;;;19.72;35.09;99016.53;5084871;28;20191;-66
2022/11/22 10:17:35;;;;;;;3.37;3.07;;;;;;;19.64;35.34;99009.00;5092346;28;20723;-69
2022/11/22 10:20:06;;;;;;;5.77;3.00;;;;;;;19.38;35.68;99004.59;5091856;28;20183;-70
2022/11/22 10:22:34;;;;;;;5.67;3.10;;;;;;;19.17;35.84;99014.47;5092114;28;20569;-68
2022/11/22 10:25:03;;;;;;;5.20;3.10;;;;;;;18.92;36.30;99003.59;5091867;28;20270;-70
2022/11/22 10:27:32;;;;;;;13.47;4.50;;;;;;;18.53;37.62;99001.44;5091723;28;20203;-67
2022/11/22 10:30:04;;;;;;;5.90;4.57;;;;;;;18.42;38.38;99010.53;5092030;28;20218;-72
2022/11/22 10:32:38;;;;;;;4.30;4.00;;;;;;;18.43;39.41;99012.97;5091366;28;20624;-72
2022/11/22 10:35:23;;;;;;;5.03;3.47;;;;;;;18.43;40.16;99009.44;5092864;28;20237;-71
2022/11/22 10:37:58;;;;;;;6.87;3.43;;;;;;;18.40;40.29;99001.88;5091692;28;20187;-71
2022/11/22 10:40:33;;;;;;;6.70;4.27;;;;;;;18.34;39.79;99014.47;5091606;28;20199;-75
2022/11/22 10:43:18;;;;;;;4.87;4.07;;;;;;;18.36;41.62;99011.53;5091799;28;20191;-67
2022/11/22 10:45:49;;;;;;;4.10;3.87;;;;;;;18.38;41.29;99012.09;5092189;28;20192;-74
2022/11/22 10:48:25;;;;;;;3.67;3.33;;;;;;;18.22;41.33;99021.09;5092323;28;20600;-73
2022/11/22 10:51:02;;;;;;;5.70;5.27;;;;;;;18.00;40.54;98991.59;5092193;28;20191;-68
2022/11/22 10:53:45;;;;;;;4.43;4.13;;;;;;;18.17;40.38;98999.53;5092898;28;20183;-67
2022/11/22 10:56:19;;;;;;;5.20;4.77;;;;;;;18.25;40.16;98999.88;5091593;28;20180;-67
2022/11/22 10:59:00;;;;;;;11.23;6.70;;;;;;;17.87;40.93;98997.38;5092209;28;20182;-68
2022/11/22 11:01:35;;;;;;;4.40;4.00;;;;;;;17.70;40.64;98985.13;5092356;28;20202;-67
2022/11/22 11:04:05;;;;;;;11.30;6.37;;;;;;;17.51;41.23;98983.88;5091584;28;20685;-69
2022/11/22 11:06:36;;;;;;;26.67;9.13;;;;;;;17.51;41.51;98970.44;5085782;28;20196;-70
2022/11/22 11:09:09;;;;;;;26.03;10.03;;;;;;;17.48;42.25;98966.38;5071272;28;20185;-69
2022/11/22 11:11:38;;;;;;;15.13;8.83;;;;;;;17.51;41.96;98957.03;5071216;28;20198;-68
2022/11/22 11:14:12;;;;;;;7.27;6.20;;;;;;;17.42;41.74;98958.50;5083761;28;20194;-68
2022/11/22 11:16:40;;;;;;;4.80;4.33;;;;;;;17.35;42.31;98949.84;5091567;28;20282;-68
2022/11/22 11:19:16;;;;;;;4.87;4.33;;;;;;;17.23;42.82;98951.84;5092094;28;20194;-67
2022/11/22 11:21:43;;;;;;;4.03;3.73;;;;;;;16.88;43.49;98959.47;5091506;28;20269;-69
2022/11/22 11:24:14;;;;;;;4.30;4.03;;;;;;;16.78;44.10;98953.97;5092305;28;20221;-70
2022/11/22 11:26:42;;;;;;;4.30;3.97;;;;;;;16.37;45.11;98927.66;5091566;28;20211;-70
2022/11/22 11:29:38;;;;;;;6.83;4.13;;;;;;;16.29;46.09;98912.78;5073385;28;20198;-70
2022/11/22 11:32:09;;;;;;;4.67;4.20;;;;;;;15.98;47.22;98915.25;5090952;28;20288;-70
2022/11/22 11:34:38;;;;;;;4.13;3.93;;;;;;;15.92;47.57;98911.69;5091237;28;20192;-70
2022/11/22 11:37:06;;;;;;;4.60;4.20;;;;;;;15.49;49.02;98896.25;5094091;28;20649;-70
2022/11/22 11:39:34;;;;;;;5.33;4.93;;;;;;;15.68;48.86;98916.41;5094636;28;20662;-67
2022/11/22 11:42:20;;;;;;;10.07;4.50;;;;;;;15.73;48.86;98916.47;5094819;28;20219;-68
2022/11/22 11:44:47;;;;;;;6.37;4.53;;;;;;;15.52;48.84;98874.34;5094819;28;20214;-68
2022/11/22 11:47:19;;;;;;;4.97;3.73;;;;;;;15.52;49.71;98909.16;5094504;28;20221;-70
2022/11/22 11:49:51;;;;;;;4.77;4.47;;;;;;;15.45;49.70;98913.84;5074656;28;20223;-71
2022/11/22 11:52:21;;;;;;;4.93;4.63;;;;;;;15.45;49.44;98891.63;5074357;28;20264;-70
2022/11/22 11:54:52;;;;;;;8.47;7.83;;;;;;;15.41;50.26;98899.31;5075130;28;20195;-68